METAR Data
IDs: Format: Raw Decoded Include TAF

Data at: 0508 UTC 24 Sep 2020

KTEX 240455Z AUTO 13006KT 10SM CLR 10/M05 A3050 RMK AO2

KTEX 232331Z 2400/2424 VRB04KT P6SM FEW090 FEW250
  FM240200 13004KT P6SM SKC
  FM241800 27007KT P6SM SKC